createdAt,value
2018-07-09T00:00:38.713Z,5.10
2018-07-09T00:03:09.696Z,3.67
2018-07-09T00:05:39.266Z,4.75
2018-07-09T00:08:08.143Z,4.47
2018-07-09T00:10:47.564Z,4.90
2018-07-09T00:13:15.749Z,3.60
2018-07-09T00:15:43.852Z,3.90
2018-07-09T00:18:11.915Z,3.40
2018-07-09T00:20:39.935Z,4.45
2018-07-09T00:23:08.016Z,3.42
2018-07-09T00:25:36.036Z,3.35
2018-07-09T00:28:04.068Z,6.33
2018-07-09T00:30:32.104Z,3.92
2018-07-09T00:33:00.143Z,4.67
2018-07-09T00:35:28.164Z,5.33
2018-07-09T00:37:56.196Z,5.22
2018-07-09T00:40:24.228Z,4.95
2018-07-09T00:42:52.799Z,4.90
2018-07-09T00:45:20.837Z,4.55
2018-07-09T00:47:49.628Z,5.55
2018-07-09T00:50:17.651Z,3.65
2018-07-09T00:52:46.104Z,4.55
2018-07-09T00:55:14.227Z,5.62
2018-07-09T00:57:42.273Z,4.30
2018-07-09T01:00:10.336Z,4.90
2018-07-09T01:02:38.360Z,5.15
2018-07-09T01:05:06.653Z,3.65
2018-07-09T01:07:34.728Z,4.45
2018-07-09T01:10:02.776Z,7.30
2018-07-09T01:12:30.813Z,4.85
2018-07-09T01:14:58.841Z,3.95
2018-07-09T01:17:26.880Z,5.37
2018-07-09T01:19:54.940Z,4.25
2018-07-09T01:22:22.980Z,6.62
2018-07-09T01:24:51.000Z,4.90
2018-07-09T01:27:19.036Z,6.05
2018-07-09T01:29:47.113Z,3.77
2018-07-09T01:32:15.152Z,3.47
2018-07-09T01:34:43.186Z,6.15
2018-07-09T01:37:11.220Z,5.12
2018-07-09T01:39:39.249Z,6.42
2018-07-09T01:42:07.381Z,5.67
2018-07-09T01:44:35.412Z,3.50
2018-07-09T01:47:03.479Z,5.17
2018-07-09T01:49:31.496Z,5.15
2018-07-09T01:51:59.592Z,3.22
2018-07-09T01:54:27.624Z,6.35
2018-07-09T01:56:55.660Z,5.47
2018-07-09T01:59:23.788Z,4.28
2018-07-09T02:01:51.807Z,4.80
2018-07-09T02:04:19.845Z,3.58
2018-07-09T02:06:47.865Z,5.22
2018-07-09T02:09:15.904Z,4.22
2018-07-09T02:11:43.927Z,4.92
2018-07-09T02:14:11.972Z,3.67
2018-07-09T02:16:39.996Z,4.22
2018-07-09T02:19:08.059Z,3.65
2018-07-09T02:21:36.088Z,3.85
2018-07-09T02:24:04.121Z,3.90
2018-07-09T02:26:32.139Z,4.17
2018-07-09T02:29:00.180Z,3.27
2018-07-09T02:31:28.203Z,2.83
2018-07-09T02:33:56.243Z,6.25
2018-07-09T02:36:24.270Z,4.37
2018-07-09T02:38:52.304Z,5.67
2018-07-09T02:41:20.332Z,5.47
2018-07-09T02:43:48.376Z,5.45
2018-07-09T02:46:16.409Z,6.05
2018-07-09T02:48:44.444Z,5.17
2018-07-09T02:51:12.465Z,2.83
2018-07-09T02:53:40.501Z,6.20
2018-07-09T02:56:08.537Z,5.00
2018-07-09T02:58:36.585Z,5.53
2018-07-09T03:01:04.734Z,4.12
2018-07-09T03:03:32.645Z,5.53
2018-07-09T03:06:00.671Z,5.45
2018-07-09T03:08:28.700Z,3.87
2018-07-09T03:10:56.760Z,4.67
2018-07-09T03:13:24.792Z,4.85
2018-07-09T03:15:52.849Z,5.90
2018-07-09T03:18:20.876Z,3.40
2018-07-09T03:20:48.903Z,5.87
2018-07-09T03:23:16.936Z,5.50
2018-07-09T03:25:44.964Z,4.60
2018-07-09T03:28:13.008Z,4.33
2018-07-09T03:30:41.024Z,5.37
2018-07-09T03:33:09.056Z,7.40
2018-07-09T03:35:37.076Z,4.25
2018-07-09T03:38:05.148Z,7.95
2018-07-09T03:40:33.176Z,3.60
2018-07-09T03:43:01.207Z,4.10
2018-07-09T03:45:29.247Z,5.75
2018-07-09T03:47:57.293Z,5.83
2018-07-09T03:50:25.315Z,5.35
2018-07-09T03:52:53.337Z,4.30
2018-07-09T03:55:21.428Z,4.80
2018-07-09T03:57:49.460Z,4.60
2018-07-09T04:00:17.484Z,5.83
2018-07-09T04:02:45.512Z,4.62
2018-07-09T04:05:13.552Z,3.98
2018-07-09T04:07:41.572Z,5.92
2018-07-09T04:10:09.612Z,5.53
2018-07-09T04:12:37.635Z,6.47
2018-07-09T04:15:05.700Z,3.98
2018-07-09T04:17:33.748Z,5.22
2018-07-09T04:20:01.815Z,6.75
2018-07-09T04:22:29.828Z,6.17
2018-07-09T04:24:57.864Z,6.37
2018-07-09T04:27:25.915Z,7.60
2018-07-09T04:29:53.939Z,6.35
2018-07-09T04:32:21.968Z,5.97
2018-07-09T04:34:50.040Z,6.67
2018-07-09T04:37:18.063Z,5.67
2018-07-09T04:39:46.088Z,6.55
2018-07-09T04:42:14.119Z,7.65
2018-07-09T04:44:42.156Z,8.05
2018-07-09T04:47:10.184Z,8.98
2018-07-09T04:49:38.253Z,9.38
2018-07-09T04:52:06.283Z,8.45
2018-07-09T04:54:34.332Z,9.78
2018-07-09T04:57:02.366Z,9.40
2018-07-09T04:59:30.444Z,10.75
2018-07-09T05:01:58.461Z,9.33
2018-07-09T05:04:26.503Z,8.68
2018-07-09T05:06:54.710Z,12.28
2018-07-09T05:09:22.829Z,11.80
2018-07-09T05:11:50.848Z,6.92
2018-07-09T05:14:18.885Z,6.67
2018-07-09T05:16:46.903Z,7.95
2018-07-09T05:19:14.936Z,7.25
2018-07-09T05:21:42.958Z,5.87
2018-07-09T05:24:11.081Z,5.33
2018-07-09T05:26:39.199Z,6.50
2018-07-09T05:29:07.268Z,6.28
2018-07-09T05:31:35.311Z,6.83
2018-07-09T05:34:03.345Z,8.75
2018-07-09T05:36:31.377Z,5.22
2018-07-09T05:38:59.407Z,8.50
2018-07-09T05:41:27.438Z,7.42
2018-07-09T05:43:55.467Z,6.35
2018-07-09T05:46:23.503Z,6.37
2018-07-09T05:48:51.543Z,5.75
2018-07-09T05:51:19.595Z,9.10
2018-07-09T05:53:47.648Z,8.00
2018-07-09T05:56:15.694Z,7.85
2018-07-09T05:58:43.715Z,9.03
2018-07-09T06:01:11.751Z,6.45
2018-07-09T06:03:39.777Z,5.67
2018-07-09T06:06:07.833Z,6.12
2018-07-09T06:08:35.852Z,7.30
2018-07-09T06:11:03.970Z,7.03
2018-07-09T06:13:32.005Z,9.48
2018-07-09T06:16:00.024Z,9.33
2018-07-09T06:18:28.060Z,10.90
2018-07-09T06:20:56.196Z,7.92
2018-07-09T06:23:24.254Z,12.00
2018-07-09T06:25:52.287Z,11.78
2018-07-09T06:28:20.348Z,10.45
2018-07-09T06:30:48.380Z,8.83
2018-07-09T06:33:16.416Z,11.03
2018-07-09T06:35:44.454Z,12.23
2018-07-09T06:38:12.490Z,13.03
2018-07-09T06:40:40.524Z,8.95
2018-07-09T06:43:08.784Z,9.35
2018-07-09T06:45:36.824Z,11.50
2018-07-09T06:48:04.859Z,9.88
2018-07-09T06:50:32.888Z,9.33
2018-07-09T06:53:00.916Z,8.90
2018-07-09T06:55:28.968Z,9.40
2018-07-09T06:57:56.988Z,9.90
2018-07-09T07:00:25.028Z,9.70
2018-07-09T07:02:53.085Z,7.17
2018-07-09T07:05:21.112Z,8.90
2018-07-09T07:07:49.159Z,6.15
2018-07-09T07:10:17.184Z,12.82
2018-07-09T07:12:45.240Z,8.75
2018-07-09T07:15:13.255Z,7.85
2018-07-09T07:17:41.300Z,8.13
2018-07-09T07:20:09.332Z,8.95
2018-07-09T07:22:37.400Z,7.35
2018-07-09T07:25:05.864Z,11.40
2018-07-09T07:27:33.900Z,7.20
2018-07-09T07:30:01.940Z,9.40
2018-07-09T07:32:29.985Z,13.30
2018-07-09T07:34:58.051Z,9.18
2018-07-09T07:37:26.136Z,13.43
2018-07-09T07:39:54.175Z,10.58
2018-07-09T07:42:22.205Z,11.33
2018-07-09T07:44:50.242Z,7.83
2018-07-09T07:47:18.281Z,10.32
2018-07-09T07:49:46.335Z,7.95
2018-07-09T07:52:14.372Z,8.68
2018-07-09T07:54:42.400Z,9.83
2018-07-09T07:57:10.766Z,14.23
2018-07-09T07:59:38.823Z,10.88
2018-07-09T08:02:06.863Z,18.82
2018-07-09T08:04:34.896Z,12.65
2018-07-09T08:07:02.952Z,8.03
2018-07-09T08:09:31.087Z,13.68
2018-07-09T08:12:59.669Z,18.40
2018-07-09T08:14:27.088Z,11.10
2018-07-09T08:16:55.143Z,17.17
2018-07-09T08:19:23.192Z,13.40
2018-07-09T08:21:51.244Z,13.40
2018-07-09T08:24:19.285Z,11.63
2018-07-09T08:26:47.328Z,13.70
2018-07-09T08:29:15.413Z,10.53
2018-07-09T08:31:43.488Z,11.80
2018-07-09T08:34:11.548Z,10.45
2018-07-09T08:36:39.603Z,11.05
2018-07-09T08:39:07.657Z,13.38
2018-07-09T08:41:35.705Z,12.33
2018-07-09T08:44:03.757Z,13.10
2018-07-09T08:46:31.800Z,10.03
2018-07-09T08:48:59.836Z,11.38
2018-07-09T08:51:27.895Z,10.93
2018-07-09T08:53:55.961Z,11.35
2018-07-09T08:56:24.041Z,14.07
2018-07-09T08:58:52.140Z,15.40
2018-07-09T09:01:20.218Z,7.72
2018-07-09T09:03:48.236Z,9.95
2018-07-09T09:06:16.256Z,9.08
2018-07-09T09:08:44.291Z,7.90
2018-07-09T09:11:12.331Z,12.55
2018-07-09T09:13:40.393Z,10.32
2018-07-09T09:16:08.448Z,13.28
2018-07-09T09:18:36.534Z,12.37
2018-07-09T09:21:04.595Z,16.42
2018-07-09T09:23:32.643Z,20.00
2018-07-09T09:26:00.708Z,17.80
2018-07-09T09:28:28.756Z,16.35
2018-07-09T09:30:56.805Z,17.40
2018-07-09T09:33:24.963Z,14.00
2018-07-09T09:35:53.089Z,22.67
2018-07-09T09:38:21.148Z,13.68
2018-07-09T09:40:49.187Z,11.97
2018-07-09T09:43:17.232Z,12.80
2018-07-09T09:45:45.283Z,15.85
2018-07-09T09:48:13.355Z,11.97
2018-07-09T09:50:41.376Z,12.85
2018-07-09T09:53:09.435Z,10.50
2018-07-09T09:55:37.804Z,15.15
2018-07-09T09:58:06.519Z,13.03
2018-07-09T10:00:39.907Z,15.85
2018-07-09T10:03:07.936Z,25.32
2018-07-09T10:05:36.019Z,12.88
2018-07-09T10:08:04.063Z,11.00
2018-07-09T10:10:32.123Z,11.95
2018-07-09T10:13:00.192Z,9.63
2018-07-09T10:15:28.231Z,13.45
2018-07-09T10:17:56.289Z,11.03
2018-07-09T10:20:24.333Z,18.05
2018-07-09T10:22:52.500Z,16.10
2018-07-09T10:25:20.481Z,12.58
2018-07-09T10:27:48.582Z,17.98
2018-07-09T10:30:16.557Z,17.35
2018-07-09T10:32:44.605Z,13.25
2018-07-09T10:35:12.639Z,22.73
2018-07-09T10:37:40.696Z,16.65
2018-07-09T10:40:08.739Z,18.15
2018-07-09T10:42:36.783Z,15.20
2018-07-09T10:45:04.836Z,20.20
2018-07-09T10:47:32.888Z,10.40
2018-07-09T10:50:00.940Z,19.57
2018-07-09T10:52:28.992Z,20.77
2018-07-09T10:54:57.027Z,14.95
2018-07-09T10:57:25.067Z,21.95
2018-07-09T10:59:53.126Z,14.70
2018-07-09T11:02:21.163Z,13.62
2018-07-09T11:04:49.203Z,19.90
2018-07-09T11:07:17.244Z,11.83
2018-07-09T11:09:45.314Z,11.22
2018-07-09T11:12:13.339Z,16.87
2018-07-09T11:14:41.388Z,20.68
2018-07-09T11:17:09.420Z,13.88
2018-07-09T11:19:37.487Z,13.80
2018-07-09T11:22:05.566Z,11.03
2018-07-09T11:24:33.627Z,12.47
2018-07-09T11:27:01.659Z,5.75
2018-07-09T11:29:29.999Z,10.70
2018-07-09T11:31:58.044Z,9.98
2018-07-09T11:34:26.129Z,11.53
2018-07-09T11:36:54.164Z,11.33
2018-07-09T11:39:22.219Z,13.90
2018-07-09T11:41:50.261Z,14.80
2018-07-09T11:44:18.308Z,10.40
2018-07-09T11:46:46.347Z,14.40
2018-07-09T11:49:14.395Z,13.00
2018-07-09T11:51:42.444Z,10.60
2018-07-09T11:54:10.475Z,12.47
2018-07-09T11:56:38.528Z,19.10
2018-07-09T11:59:06.601Z,14.50
2018-07-09T12:01:34.644Z,10.95
2018-07-09T12:04:02.692Z,10.40
2018-07-09T12:06:30.737Z,12.73
2018-07-09T12:08:58.784Z,13.93
2018-07-09T12:11:26.893Z,11.28
2018-07-09T12:13:54.972Z,11.95
2018-07-09T12:16:23.000Z,12.10
2018-07-09T12:18:51.055Z,17.05
2018-07-09T12:21:19.111Z,17.12
2018-07-09T12:23:47.151Z,11.78
2018-07-09T12:26:15.199Z,13.05
2018-07-09T12:28:43.244Z,16.97
2018-07-09T12:31:11.311Z,10.60
2018-07-09T12:33:39.364Z,11.57
2018-07-09T12:36:07.914Z,10.48
2018-07-09T12:38:35.912Z,9.45
2018-07-09T12:41:03.961Z,8.33
2018-07-09T12:43:32.001Z,6.58
2018-07-09T12:46:00.055Z,10.28
2018-07-09T12:48:28.072Z,7.80
2018-07-09T12:50:56.123Z,9.10
2018-07-09T12:53:24.880Z,11.68
2018-07-09T12:55:52.939Z,8.78
2018-07-09T12:58:20.968Z,11.60
2018-07-09T13:00:49.012Z,14.90
2018-07-09T13:03:17.040Z,9.45
2018-07-09T13:05:45.081Z,8.53
2018-07-09T13:08:13.110Z,8.38
2018-07-09T13:10:41.781Z,8.83
2018-07-09T13:13:09.806Z,7.87
2018-07-09T13:15:37.844Z,8.48
2018-07-09T13:18:05.916Z,7.65
2018-07-09T13:20:33.948Z,8.78
2018-07-09T13:23:02.099Z,11.68
2018-07-09T13:25:30.205Z,5.20
2018-07-09T13:27:58.260Z,7.08
2018-07-09T13:30:26.330Z,9.38
2018-07-09T13:32:54.361Z,8.08
2018-07-09T13:35:22.392Z,7.87
2018-07-09T13:37:50.427Z,8.20
2018-07-09T13:40:18.468Z,7.00
2018-07-09T13:42:46.544Z,4.37
2018-07-09T13:45:14.598Z,7.30
2018-07-09T13:47:42.668Z,10.25
2018-07-09T13:50:10.703Z,9.60
2018-07-09T13:52:38.740Z,8.38
2018-07-09T13:55:06.784Z,11.95
2018-07-09T13:57:35.000Z,8.43
2018-07-09T14:00:03.044Z,8.65
2018-07-09T14:02:31.068Z,6.42
2018-07-09T14:04:59.139Z,5.78
2018-07-09T14:07:27.201Z,8.48
2018-07-09T14:09:55.262Z,10.72
2018-07-09T14:12:26.595Z,8.95
2018-07-09T14:14:55.276Z,7.78
2018-07-09T14:17:23.304Z,10.28
2018-07-09T14:20:29.994Z,7.08
2018-07-09T14:22:58.365Z,8.93
2018-07-09T14:25:26.428Z,6.70
2018-07-09T14:27:54.464Z,6.58
2018-07-09T14:30:22.556Z,7.85
2018-07-09T14:32:50.584Z,9.63
2018-07-09T14:35:18.615Z,8.90
2018-07-09T14:37:46.688Z,7.50
2018-07-09T14:40:14.719Z,8.98
2018-07-09T14:42:42.779Z,8.78
2018-07-09T14:45:10.865Z,5.12
2018-07-09T14:47:38.885Z,5.97
2018-07-09T14:50:06.969Z,11.80
2018-07-09T14:52:35.005Z,13.40
2018-07-09T14:55:03.053Z,9.03
2018-07-09T14:57:31.134Z,17.27
2018-07-09T14:59:59.167Z,14.87
2018-07-09T15:02:27.200Z,8.60
2018-07-09T15:04:55.219Z,9.53
2018-07-09T15:07:23.572Z,9.95
2018-07-09T15:09:51.628Z,7.83
2018-07-09T15:12:19.677Z,10.98
2018-07-09T15:14:47.703Z,9.05
2018-07-09T15:17:15.736Z,8.98
2018-07-09T15:19:43.772Z,8.55
2018-07-09T15:22:11.812Z,6.25
2018-07-09T15:24:39.850Z,10.10
2018-07-09T15:27:07.892Z,7.30
2018-07-09T15:29:35.928Z,14.07
2018-07-09T15:32:16.876Z,11.70
2018-07-09T15:34:44.892Z,9.48
2018-07-09T15:37:12.996Z,9.18
2018-07-09T15:39:41.066Z,8.45
2018-07-09T15:42:09.171Z,9.05
2018-07-09T15:44:37.284Z,9.43
2018-07-09T15:47:05.586Z,9.40
2018-07-09T15:49:33.604Z,9.23
2018-07-09T15:52:01.644Z,7.17
2018-07-09T15:54:29.680Z,10.65
2018-07-09T15:56:57.753Z,9.28
2018-07-09T15:59:25.780Z,7.45
2018-07-09T16:01:53.815Z,7.65
2018-07-09T16:04:21.849Z,10.93
2018-07-09T16:06:49.888Z,8.08
2018-07-09T16:09:17.891Z,8.55
2018-07-09T16:11:45.935Z,9.63
2018-07-09T16:14:13.970Z,8.25
2018-07-09T16:16:42.012Z,9.35
2018-07-09T16:19:10.069Z,9.85
2018-07-09T16:21:38.121Z,9.10
2018-07-09T16:24:06.176Z,6.85
2018-07-09T16:26:34.216Z,7.53
2018-07-09T16:29:02.256Z,7.60
2018-07-09T16:31:30.268Z,7.40
2018-07-09T16:33:58.309Z,8.15
2018-07-09T16:36:26.403Z,5.92
2018-07-09T16:38:54.354Z,6.78
2018-07-09T16:41:22.380Z,5.67
2018-07-09T16:43:50.420Z,7.90
2018-07-09T16:46:18.449Z,7.53
2018-07-09T16:48:46.492Z,7.40
2018-07-09T16:51:21.084Z,5.75
2018-07-09T16:53:49.123Z,5.30
2018-07-09T16:56:17.144Z,4.90
2018-07-09T16:58:45.186Z,6.40
2018-07-09T17:01:13.216Z,6.97
2018-07-09T17:03:41.256Z,10.32
2018-07-09T17:06:09.316Z,4.33
2018-07-09T17:08:37.351Z,6.28
2018-07-09T17:11:05.386Z,7.90
2018-07-09T17:13:33.439Z,6.10
2018-07-09T17:16:01.465Z,9.03
2018-07-09T17:18:29.511Z,11.50
2018-07-09T17:20:57.555Z,11.22
2018-07-09T17:23:25.595Z,8.08
2018-07-09T17:25:53.618Z,7.30
2018-07-09T17:28:21.656Z,7.17
2018-07-09T17:30:49.676Z,6.00
2018-07-09T17:33:17.715Z,6.67
2018-07-09T17:35:45.740Z,7.37
2018-07-09T17:38:13.819Z,7.83
2018-07-09T17:40:41.856Z,12.35
2018-07-09T17:43:09.903Z,7.03
2018-07-09T17:45:37.928Z,6.65
2018-07-09T17:48:05.992Z,11.03
2018-07-09T17:50:34.045Z,6.70
2018-07-09T17:53:02.081Z,6.97
2018-07-09T17:55:30.119Z,7.97
2018-07-09T17:57:58.179Z,9.05
2018-07-09T18:00:26.196Z,7.30
2018-07-09T18:02:54.223Z,7.75
2018-07-09T18:05:22.278Z,7.92
2018-07-09T18:07:50.304Z,7.65
2018-07-09T18:10:18.417Z,9.60
2018-07-09T18:12:46.382Z,6.83
2018-07-09T18:15:14.416Z,7.83
2018-07-09T18:17:42.456Z,9.75
2018-07-09T18:20:10.501Z,8.75
2018-07-09T18:22:38.521Z,7.25
2018-07-09T18:25:07.143Z,6.53
2018-07-09T18:27:35.164Z,6.05
2018-07-09T18:30:03.209Z,4.83
2018-07-09T18:32:31.233Z,5.60
2018-07-09T18:34:59.265Z,8.25
2018-07-09T18:37:27.288Z,5.97
2018-07-09T18:39:55.424Z,6.70
2018-07-09T18:42:23.480Z,6.20
2018-07-09T18:44:51.523Z,4.03
2018-07-09T18:47:19.557Z,5.28
2018-07-09T18:49:47.588Z,4.42
2018-07-09T18:52:15.612Z,4.10
2018-07-09T18:54:43.651Z,7.60
2018-07-09T18:57:11.677Z,5.30
2018-07-09T18:59:39.725Z,8.20
2018-07-09T19:02:07.763Z,5.70
2018-07-09T19:04:35.807Z,6.08
2018-07-09T19:07:07.181Z,5.15
2018-07-09T19:09:35.725Z,6.12
2018-07-09T19:12:05.064Z,9.43
2018-07-09T19:14:36.980Z,6.87
2018-07-09T19:18:21.936Z,6.62
2018-07-09T19:21:29.124Z,9.65
2018-07-09T19:23:56.205Z,4.00
2018-07-09T19:26:23.247Z,3.58
2018-07-09T19:28:50.424Z,4.40
2018-07-09T19:31:17.726Z,4.17
2018-07-09T19:33:44.835Z,3.40
2018-07-09T19:36:11.904Z,3.30
2018-07-09T19:38:39.272Z,5.22
2018-07-09T19:41:06.733Z,4.67
2018-07-09T19:43:33.978Z,4.37
2018-07-09T19:46:01.073Z,3.75
2018-07-09T19:48:28.116Z,6.30
2018-07-09T19:50:55.187Z,4.90
2018-07-09T19:53:22.240Z,7.83
2018-07-09T19:55:49.312Z,5.33
2018-07-09T19:58:16.380Z,4.30
2018-07-09T20:00:43.722Z,8.43
2018-07-09T20:03:11.171Z,5.08
2018-07-09T20:05:38.240Z,4.33
2018-07-09T20:08:06.076Z,5.05
2018-07-09T20:10:38.511Z,4.85
2018-07-09T20:14:08.631Z,4.80
2018-07-09T20:16:41.163Z,5.33
2018-07-09T20:19:08.703Z,4.50
2018-07-09T20:21:35.776Z,5.95
2018-07-09T20:24:02.836Z,5.58
2018-07-09T20:26:29.911Z,5.30
2018-07-09T20:28:56.976Z,5.50
2018-07-09T20:31:24.046Z,7.08
2018-07-09T20:33:51.107Z,6.08
2018-07-09T20:36:18.254Z,8.15
2018-07-09T20:38:45.316Z,4.42
2018-07-09T20:41:12.735Z,3.45
2018-07-09T20:43:39.795Z,7.40
2018-07-09T20:46:06.866Z,5.22
2018-07-09T20:48:33.915Z,3.42
2018-07-09T20:51:00.983Z,6.80
2018-07-09T20:53:28.053Z,3.52
2018-07-09T20:55:55.932Z,3.95
2018-07-09T20:58:22.993Z,5.78
2018-07-09T21:00:50.101Z,7.58
2018-07-09T21:03:17.164Z,3.45
2018-07-09T21:05:44.229Z,5.10
2018-07-09T21:08:11.288Z,3.98
2018-07-09T21:10:38.350Z,5.15
2018-07-09T21:13:05.409Z,5.97
2018-07-09T21:15:32.554Z,3.42
2018-07-09T21:17:59.552Z,9.03
2018-07-09T21:20:26.619Z,3.90
2018-07-09T21:22:53.680Z,5.17
2018-07-09T21:25:20.748Z,6.65
2018-07-09T21:27:47.812Z,7.17
2018-07-09T21:30:14.884Z,4.17
2018-07-09T21:32:41.953Z,3.70
2018-07-09T21:35:09.020Z,4.58
2018-07-09T21:37:36.146Z,7.37
2018-07-09T21:40:03.154Z,5.55
2018-07-09T21:42:30.216Z,7.25
2018-07-09T21:44:57.284Z,3.00
2018-07-09T21:47:24.352Z,2.58
2018-07-09T21:49:51.407Z,4.97
2018-07-09T21:52:18.476Z,5.67
2018-07-09T21:54:45.544Z,5.42
2018-07-09T21:57:12.616Z,4.65
2018-07-09T21:59:39.671Z,6.90
2018-07-09T22:02:06.744Z,5.15
2018-07-09T22:04:33.808Z,4.12
2018-07-09T22:07:00.881Z,3.12
2018-07-09T22:09:27.940Z,2.95
2018-07-09T22:11:55.009Z,5.47
2018-07-09T22:14:22.071Z,4.53
2018-07-09T22:16:49.140Z,3.80
2018-07-09T22:19:16.516Z,6.90
2018-07-09T22:21:44.072Z,3.05
2018-07-09T22:24:11.133Z,3.35
2018-07-09T22:26:38.204Z,2.52
2018-07-09T22:29:05.268Z,4.17
2018-07-09T22:31:33.308Z,2.77
2018-07-09T22:34:01.327Z,3.42
2018-07-09T22:36:29.369Z,4.58
2018-07-09T22:38:57.391Z,5.65
2018-07-09T22:41:25.443Z,3.55
2018-07-09T22:44:04.951Z,3.98
2018-07-09T22:46:32.982Z,5.03
2018-07-09T22:49:01.007Z,5.60
2018-07-09T22:51:29.045Z,4.95
2018-07-09T22:53:57.076Z,3.75
2018-07-09T22:56:25.123Z,4.12
2018-07-09T22:58:53.136Z,4.08
2018-07-09T23:01:21.205Z,2.98
2018-07-09T23:03:49.236Z,6.25
2018-07-09T23:06:17.265Z,3.62
2018-07-09T23:08:45.288Z,8.40
2018-07-09T23:14:04.060Z,6.17
2018-07-09T23:16:44.940Z,4.05
2018-07-09T23:19:25.100Z,4.47
2018-07-09T23:22:04.578Z,4.15
2018-07-09T23:24:31.640Z,2.87
2018-07-09T23:26:58.787Z,2.10
2018-07-09T23:29:25.845Z,2.10
2018-07-09T23:31:52.972Z,5.47
2018-07-09T23:34:20.157Z,1.70
2018-07-09T23:36:47.242Z,3.70
2018-07-09T23:39:14.348Z,4.50
2018-07-09T23:41:41.419Z,4.65
2018-07-09T23:44:08.491Z,3.30
2018-07-09T23:46:35.547Z,5.20
2018-07-09T23:49:02.620Z,3.17
2018-07-09T23:51:29.717Z,7.33
2018-07-09T23:57:01.732Z,8.40
2018-07-09T23:59:41.418Z,6.58
